Lamar, Missouri
Current Conditions -  °F | °C
As of 8:55 AM on Thursday 30 Oct 2014 (Local Time) from KPTS Reporting Station
Scattered Clouds Scattered Clouds  
Wind Chill: 56°   Ceiling: Unl
Heat Index: 56°   Visibility: 10mi
Dew Point: 44°   Wind: 13mph
Humidity: 64%   Direction: 220°SW
Pressure: 30.05"   Gusts: NA
Location:  37.5°N, 94.28°W
Report Text: KPTS 301355Z AUTO 22011KT 10SM SCT100 SCT120 13/07 A3005 RMK AO2 T01340068
Loading
Personal Weather Stations






























Interactive Weather Map
Tropical Storm Tracking
New forecast layout! Learn more

10-Day Weather Forecast

Advertisements
Track Severe Weather on mobile